sensor_id;sensor_type;location;lat;lon;timestamp;temperature;humidity
5210;DHT22;2624;48.048;11.706;2023-08-20T00:02:25;23.10;99.90
5210;DHT22;2624;48.048;11.706;2023-08-20T00:07:29;23.10;99.90
5210;DHT22;2624;48.048;11.706;2023-08-20T00:12:33;23.10;99.90
5210;DHT22;2624;48.048;11.706;2023-08-20T00:17:36;22.90;99.90
5210;DHT22;2624;48.048;11.706;2023-08-20T00:22:38;22.90;99.90
5210;DHT22;2624;48.048;11.706;2023-08-20T00:27:42;22.70;99.90
5210;DHT22;2624;48.048;11.706;2023-08-20T00:32:44;22.70;99.90
5210;DHT22;2624;48.048;11.706;2023-08-20T00:37:45;22.80;99.90
5210;DHT22;2624;48.048;11.706;2023-08-20T00:42:48;22.70;99.90
5210;DHT22;2624;48.048;11.706;2023-08-20T00:47:50;22.60;99.90
5210;DHT22;2624;48.048;11.706;2023-08-20T00:52:52;23.00;99.90
5210;DHT22;2624;48.048;11.706;2023-08-20T00:57:56;23.30;99.90
5210;DHT22;2624;48.048;11.706;2023-08-20T01:02:57;22.90;99.90
5210;DHT22;2624;48.048;11.706;2023-08-20T01:08:16;22.50;99.90
5210;DHT22;2624;48.048;11.706;2023-08-20T01:13:23;22.40;99.90
5210;DHT22;2624;48.048;11.706;2023-08-20T01:18:25;22.30;99.90
5210;DHT22;2624;48.048;11.706;2023-08-20T01:23:47;22.20;99.90
5210;DHT22;2624;48.048;11.706;2023-08-20T01:28:54;22.10;99.90
5210;DHT22;2624;48.048;11.706;2023-08-20T01:33:57;22.00;99.90
5210;DHT22;2624;48.048;11.706;2023-08-20T01:38:58;22.50;99.90
5210;DHT22;2624;48.048;11.706;2023-08-20T01:44:02;22.70;99.90
5210;DHT22;2624;48.048;11.706;2023-08-20T01:49:04;22.20;99.90
5210;DHT22;2624;48.048;11.706;2023-08-20T01:54:06;21.90;99.90
5210;DHT22;2624;48.048;11.706;2023-08-20T01:59:10;21.80;99.90
5210;DHT22;2624;48.048;11.706;2023-08-20T02:04:12;21.80;99.90
5210;DHT22;2624;48.048;11.706;2023-08-20T02:09:14;22.20;99.90
5210;DHT22;2624;48.048;11.706;2023-08-20T02:14:17;22.10;99.90
5210;DHT22;2624;48.048;11.706;2023-08-20T02:19:19;22.20;99.90
5210;DHT22;2624;48.048;11.706;2023-08-20T02:24:21;22.50;99.90
5210;DHT22;2624;48.048;11.706;2023-08-20T02:29:24;22.50;99.90
5210;DHT22;2624;48.048;11.706;2023-08-20T02:34:26;22.00;99.90
5210;DHT22;2624;48.048;11.706;2023-08-20T02:39:27;21.50;99.90
5210;DHT22;2624;48.048;11.706;2023-08-20T02:44:30;21.40;99.90
5210;DHT22;2624;48.048;11.706;2023-08-20T02:49:32;21.60;99.90
5210;DHT22;2624;48.048;11.706;2023-08-20T02:54:34;21.90;99.90
5210;DHT22;2624;48.048;11.706;2023-08-20T02:59:37;21.80;99.90
5210;DHT22;2624;48.048;11.706;2023-08-20T03:04:39;21.60;99.90
5210;DHT22;2624;48.048;11.706;2023-08-20T03:09:40;21.60;99.90
5210;DHT22;2624;48.048;11.706;2023-08-20T03:14:44;21.30;99.90
5210;DHT22;2624;48.048;11.706;2023-08-20T03:19:54;21.10;99.90
5210;DHT22;2624;48.048;11.706;2023-08-20T03:24:56;21.00;99.90
5210;DHT22;2624;48.048;11.706;2023-08-20T03:29:59;21.00;99.90
5210;DHT22;2624;48.048;11.706;2023-08-20T03:35:01;21.00;99.90
5210;DHT22;2624;48.048;11.706;2023-08-20T03:40:04;21.50;99.90
5210;DHT22;2624;48.048;11.706;2023-08-20T03:45:08;21.80;99.90
5210;DHT22;2624;48.048;11.706;2023-08-20T03:50:10;21.30;99.90
5210;DHT22;2624;48.048;11.706;2023-08-20T03:55:12;21.20;99.90
5210;DHT22;2624;48.048;11.706;2023-08-20T04:00:15;21.60;99.90
5210;DHT22;2624;48.048;11.706;2023-08-20T04:05:17;21.20;99.90
5210;DHT22;2624;48.048;11.706;2023-08-20T04:10:19;21.20;99.90
5210;DHT22;2624;48.048;11.706;2023-08-20T04:15:22;21.10;99.90
5210;DHT22;2624;48.048;11.706;2023-08-20T04:20:24;21.40;99.90
5210;DHT22;2624;48.048;11.706;2023-08-20T04:25:26;21.80;99.90
5210;DHT22;2624;48.048;11.706;2023-08-20T04:30:29;21.70;99.90
5210;DHT22;2624;48.048;11.706;2023-08-20T04:35:30;21.20;99.90
5210;DHT22;2624;48.048;11.706;2023-08-20T04:40:32;21.50;99.90
5210;DHT22;2624;48.048;11.706;2023-08-20T04:45:35;21.60;99.90
5210;DHT22;2624;48.048;11.706;2023-08-20T04:50:37;21.60;99.90
5210;DHT22;2624;48.048;11.706;2023-08-20T04:55:39;21.70;99.90
5210;DHT22;2624;48.048;11.706;2023-08-20T05:00:42;21.40;99.90
5210;DHT22;2624;48.048;11.706;2023-08-20T05:05:48;20.90;99.90
5210;DHT22;2624;48.048;11.706;2023-08-20T05:10:50;21.00;99.90
5210;DHT22;2624;48.048;11.706;2023-08-20T05:15:53;20.80;99.90
5210;DHT22;2624;48.048;11.706;2023-08-20T05:20:55;20.30;99.90
5210;DHT22;2624;48.048;11.706;2023-08-20T05:25:57;20.50;99.90
5210;DHT22;2624;48.048;11.706;2023-08-20T05:31:00;20.60;99.90
5210;DHT22;2624;48.048;11.706;2023-08-20T05:36:02;20.80;99.90
5210;DHT22;2624;48.048;11.706;2023-08-20T05:41:04;20.80;99.90
5210;DHT22;2624;48.048;11.706;2023-08-20T05:46:07;20.70;99.90
5210;DHT22;2624;48.048;11.706;2023-08-20T05:51:09;20.70;99.90
5210;DHT22;2624;48.048;11.706;2023-08-20T05:56:10;20.80;99.90
5210;DHT22;2624;48.048;11.706;2023-08-20T06:01:14;20.80;99.90
5210;DHT22;2624;48.048;11.706;2023-08-20T06:06:15;20.80;99.90
5210;DHT22;2624;48.048;11.706;2023-08-20T06:11:17;20.80;99.90
5210;DHT22;2624;48.048;11.706;2023-08-20T06:16:20;20.90;99.90
5210;DHT22;2624;48.048;11.706;2023-08-20T06:21:22;21.00;99.90
5210;DHT22;2624;48.048;11.706;2023-08-20T06:26:24;21.10;99.90
5210;DHT22;2624;48.048;11.706;2023-08-20T06:31:27;21.10;99.90
5210;DHT22;2624;48.048;11.706;2023-08-20T06:36:29;21.10;99.90
5210;DHT22;2624;48.048;11.706;2023-08-20T06:41:30;21.20;99.90
5210;DHT22;2624;48.048;11.706;2023-08-20T06:46:33;21.40;99.90
5210;DHT22;2624;48.048;11.706;2023-08-20T06:51:35;21.50;99.90
5210;DHT22;2624;48.048;11.706;2023-08-20T06:56:37;21.50;99.90
5210;DHT22;2624;48.048;11.706;2023-08-20T07:01:40;21.60;99.90
5210;DHT22;2624;48.048;11.706;2023-08-20T07:06:42;21.80;99.90
5210;DHT22;2624;48.048;11.706;2023-08-20T07:11:44;21.90;99.90
5210;DHT22;2624;48.048;11.706;2023-08-20T07:16:47;22.00;99.90
5210;DHT22;2624;48.048;11.706;2023-08-20T07:21:49;22.00;99.90
5210;DHT22;2624;48.048;11.706;2023-08-20T07:26:51;22.20;99.90
5210;DHT22;2624;48.048;11.706;2023-08-20T07:31:54;22.90;99.90
5210;DHT22;2624;48.048;11.706;2023-08-20T07:36:56;22.90;99.90
5210;DHT22;2624;48.048;11.706;2023-08-20T07:41:58;23.10;99.90
5210;DHT22;2624;48.048;11.706;2023-08-20T07:47:01;23.10;99.90
5210;DHT22;2624;48.048;11.706;2023-08-20T07:52:03;23.20;99.90
5210;DHT22;2624;48.048;11.706;2023-08-20T07:57:05;23.50;99.90
5210;DHT22;2624;48.048;11.706;2023-08-20T08:02:08;23.50;99.90
5210;DHT22;2624;48.048;11.706;2023-08-20T08:07:10;23.30;99.90
5210;DHT22;2624;48.048;11.706;2023-08-20T08:12:12;23.60;99.90
5210;DHT22;2624;48.048;11.706;2023-08-20T08:17:16;23.90;99.90
5210;DHT22;2624;48.048;11.706;2023-08-20T08:22:17;24.70;99.90
5210;DHT22;2624;48.048;11.706;2023-08-20T08:27:19;24.50;99.90
5210;DHT22;2624;48.048;11.706;2023-08-20T08:32:22;24.70;99.40
5210;DHT22;2624;48.048;11.706;2023-08-20T08:37:24;24.70;99.20
5210;DHT22;2624;48.048;11.706;2023-08-20T08:42:26;25.30;97.50
5210;DHT22;2624;48.048;11.706;2023-08-20T08:47:29;25.90;94.80
5210;DHT22;2624;48.048;11.706;2023-08-20T08:52:31;26.10;95.70
5210;DHT22;2624;48.048;11.706;2023-08-20T08:57:33;26.70;94.60
5210;DHT22;2624;48.048;11.706;2023-08-20T09:02:36;26.60;96.00
5210;DHT22;2624;48.048;11.706;2023-08-20T09:07:42;26.60;95.10
5210;DHT22;2624;48.048;11.706;2023-08-20T09:12:43;27.20;93.60
5210;DHT22;2624;48.048;11.706;2023-08-20T09:17:46;27.60;92.80
5210;DHT22;2624;48.048;11.706;2023-08-20T09:22:49;27.70;92.10
5210;DHT22;2624;48.048;11.706;2023-08-20T09:27:53;28.10;90.80
5210;DHT22;2624;48.048;11.706;2023-08-20T09:33:09;28.00;91.80
5210;DHT22;2624;48.048;11.706;2023-08-20T09:38:11;28.30;91.50
5210;DHT22;2624;48.048;11.706;2023-08-20T09:43:15;28.40;92.00
5210;DHT22;2624;48.048;11.706;2023-08-20T09:48:19;28.30;90.20
5210;DHT22;2624;48.048;11.706;2023-08-20T09:53:25;28.70;88.40
5210;DHT22;2624;48.048;11.706;2023-08-20T09:58:28;28.80;87.90
5210;DHT22;2624;48.048;11.706;2023-08-20T10:03:32;28.50;90.20
5210;DHT22;2624;48.048;11.706;2023-08-20T10:08:34;28.30;90.80
5210;DHT22;2624;48.048;11.706;2023-08-20T10:13:37;29.10;88.80
5210;DHT22;2624;48.048;11.706;2023-08-20T10:18:40;29.30;86.20
5210;DHT22;2624;48.048;11.706;2023-08-20T10:23:42;28.80;87.50
5210;DHT22;2624;48.048;11.706;2023-08-20T10:28:49;29.40;85.40
5210;DHT22;2624;48.048;11.706;2023-08-20T10:33:55;29.90;83.30
5210;DHT22;2624;48.048;11.706;2023-08-20T10:38:58;30.10;83.60
5210;DHT22;2624;48.048;11.706;2023-08-20T10:44:04;29.30;90.40
5210;DHT22;2624;48.048;11.706;2023-08-20T10:49:07;29.60;83.70
5210;DHT22;2624;48.048;11.706;2023-08-20T10:54:11;30.10;75.90
5210;DHT22;2624;48.048;11.706;2023-08-20T10:59:17;30.40;81.50
5210;DHT22;2624;48.048;11.706;2023-08-20T11:04:22;30.20;86.30
5210;DHT22;2624;48.048;11.706;2023-08-20T11:09:25;29.50;87.80
5210;DHT22;2624;48.048;11.706;2023-08-20T11:14:27;29.90;88.20
5210;DHT22;2624;48.048;11.706;2023-08-20T11:19:30;30.00;86.40
5210;DHT22;2624;48.048;11.706;2023-08-20T11:24:33;30.20;86.70
5210;DHT22;2624;48.048;11.706;2023-08-20T11:29:36;30.20;87.80
5210;DHT22;2624;48.048;11.706;2023-08-20T11:34:39;29.50;89.50
5210;DHT22;2624;48.048;11.706;2023-08-20T11:39:42;30.40;86.70
5210;DHT22;2624;48.048;11.706;2023-08-20T11:44:44;30.60;82.00
5210;DHT22;2624;48.048;11.706;2023-08-20T11:49:48;31.30;81.50
5210;DHT22;2624;48.048;11.706;2023-08-20T11:55:03;31.70;73.80
5210;DHT22;2624;48.048;11.706;2023-08-20T12:00:06;31.20;82.60
5210;DHT22;2624;48.048;11.706;2023-08-20T12:05:11;31.30;79.20
5210;DHT22;2624;48.048;11.706;2023-08-20T12:10:20;31.60;78.00
5210;DHT22;2624;48.048;11.706;2023-08-20T12:15:22;31.80;73.40
5210;DHT22;2624;48.048;11.706;2023-08-20T12:20:27;32.10;77.70
5210;DHT22;2624;48.048;11.706;2023-08-20T12:25:31;31.60;76.20
5210;DHT22;2624;48.048;11.706;2023-08-20T12:30:34;31.80;77.50
5210;DHT22;2624;48.048;11.706;2023-08-20T12:35:37;32.30;75.80
5210;DHT22;2624;48.048;11.706;2023-08-20T12:40:39;31.60;80.80
5210;DHT22;2624;48.048;11.706;2023-08-20T12:45:41;31.60;78.70
5210;DHT22;2624;48.048;11.706;2023-08-20T12:50:44;32.10;72.30
5210;DHT22;2624;48.048;11.706;2023-08-20T12:55:46;31.90;74.30
5210;DHT22;2624;48.048;11.706;2023-08-20T13:00:48;32.30;71.10
5210;DHT22;2624;48.048;11.706;2023-08-20T13:05:53;32.50;73.70
5210;DHT22;2624;48.048;11.706;2023-08-20T13:10:57;32.30;71.50
5210;DHT22;2624;48.048;11.706;2023-08-20T13:15:59;32.30;75.40
5210;DHT22;2624;48.048;11.706;2023-08-20T13:21:03;32.30;74.60
5210;DHT22;2624;48.048;11.706;2023-08-20T13:26:04;32.20;71.50
5210;DHT22;2624;48.048;11.706;2023-08-20T13:31:06;32.50;71.10
5210;DHT22;2624;48.048;11.706;2023-08-20T13:36:09;32.70;74.40
5210;DHT22;2624;48.048;11.706;2023-08-20T13:41:11;32.80;73.50
5210;DHT22;2624;48.048;11.706;2023-08-20T13:46:13;32.70;70.50
5210;DHT22;2624;48.048;11.706;2023-08-20T13:51:16;32.70;75.60
5210;DHT22;2624;48.048;11.706;2023-08-20T13:56:18;32.60;71.60
5210;DHT22;2624;48.048;11.706;2023-08-20T14:01:19;32.70;76.00
5210;DHT22;2624;48.048;11.706;2023-08-20T14:06:22;32.70;75.10
5210;DHT22;2624;48.048;11.706;2023-08-20T14:11:24;32.80;74.00
5210;DHT22;2624;48.048;11.706;2023-08-20T14:16:26;32.60;77.20
5210;DHT22;2624;48.048;11.706;2023-08-20T14:21:29;32.50;71.00
5210;DHT22;2624;48.048;11.706;2023-08-20T14:26:31;32.50;73.10
5210;DHT22;2624;48.048;11.706;2023-08-20T14:31:33;32.50;75.30
5210;DHT22;2624;48.048;11.706;2023-08-20T14:36:36;32.30;68.80
5210;DHT22;2624;48.048;11.706;2023-08-20T14:41:38;32.20;71.00
5210;DHT22;2624;48.048;11.706;2023-08-20T14:46:40;32.20;78.60
5210;DHT22;2624;48.048;11.706;2023-08-20T14:51:43;32.10;74.20
5210;DHT22;2624;48.048;11.706;2023-08-20T14:56:45;32.10;74.10
5210;DHT22;2624;48.048;11.706;2023-08-20T15:01:47;32.00;71.50
5210;DHT22;2624;48.048;11.706;2023-08-20T15:06:50;32.00;74.90
5210;DHT22;2624;48.048;11.706;2023-08-20T15:11:52;31.90;73.40
5210;DHT22;2624;48.048;11.706;2023-08-20T15:16:54;31.90;76.40
5210;DHT22;2624;48.048;11.706;2023-08-20T15:21:57;31.80;73.20
5210;DHT22;2624;48.048;11.706;2023-08-20T15:26:58;31.60;71.80
5210;DHT22;2624;48.048;11.706;2023-08-20T15:32:00;31.50;72.00
5210;DHT22;2624;48.048;11.706;2023-08-20T15:37:03;31.60;72.00
5210;DHT22;2624;48.048;11.706;2023-08-20T15:42:06;31.50;72.30
5210;DHT22;2624;48.048;11.706;2023-08-20T15:47:07;31.40;73.40
5210;DHT22;2624;48.048;11.706;2023-08-20T15:52:11;31.30;72.90
5210;DHT22;2624;48.048;11.706;2023-08-20T15:57:12;31.30;75.80
5210;DHT22;2624;48.048;11.706;2023-08-20T16:02:14;31.20;72.60
5210;DHT22;2624;48.048;11.706;2023-08-20T16:07:18;31.10;75.60
5210;DHT22;2624;48.048;11.706;2023-08-20T16:12:20;31.10;74.80
5210;DHT22;2624;48.048;11.706;2023-08-20T16:17:22;31.00;74.90
5210;DHT22;2624;48.048;11.706;2023-08-20T16:22:25;31.00;77.60
5210;DHT22;2624;48.048;11.706;2023-08-20T16:27:26;30.80;76.50
5210;DHT22;2624;48.048;11.706;2023-08-20T16:32:28;30.70;79.20
5210;DHT22;2624;48.048;11.706;2023-08-20T16:37:31;30.70;77.80
5210;DHT22;2624;48.048;11.706;2023-08-20T16:42:34;30.60;78.40
5210;DHT22;2624;48.048;11.706;2023-08-20T16:47:36;30.60;82.30
5210;DHT22;2624;48.048;11.706;2023-08-20T16:52:39;30.50;80.90
5210;DHT22;2624;48.048;11.706;2023-08-20T16:57:41;30.40;82.10
5210;DHT22;2624;48.048;11.706;2023-08-20T17:02:42;30.30;76.80
5210;DHT22;2624;48.048;11.706;2023-08-20T17:07:45;30.10;77.10
5210;DHT22;2624;48.048;11.706;2023-08-20T17:12:47;30.10;78.10
5210;DHT22;2624;48.048;11.706;2023-08-20T17:17:49;30.10;80.10
5210;DHT22;2624;48.048;11.706;2023-08-20T17:22:52;29.90;78.80
5210;DHT22;2624;48.048;11.706;2023-08-20T17:27:54;29.90;80.90
5210;DHT22;2624;48.048;11.706;2023-08-20T17:32:56;29.90;81.10
5210;DHT22;2624;48.048;11.706;2023-08-20T17:37:59;29.80;80.10
5210;DHT22;2624;48.048;11.706;2023-08-20T17:43:01;29.60;80.50
5210;DHT22;2624;48.048;11.706;2023-08-20T17:48:03;29.60;81.90
5210;DHT22;2624;48.048;11.706;2023-08-20T17:53:06;29.50;84.30
5210;DHT22;2624;48.048;11.706;2023-08-20T17:58:09;29.40;84.90
5210;DHT22;2624;48.048;11.706;2023-08-20T18:03:11;29.30;85.50
5210;DHT22;2624;48.048;11.706;2023-08-20T18:08:15;29.30;85.90
5210;DHT22;2624;48.048;11.706;2023-08-20T18:13:17;29.20;87.60
5210;DHT22;2624;48.048;11.706;2023-08-20T18:18:19;29.10;87.70
5210;DHT22;2624;48.048;11.706;2023-08-20T18:23:22;29.10;90.10
5210;DHT22;2624;48.048;11.706;2023-08-20T18:28:24;29.20;89.50
5210;DHT22;2624;48.048;11.706;2023-08-20T18:33:26;28.80;90.50
5210;DHT22;2624;48.048;11.706;2023-08-20T18:38:39;28.60;91.00
5210;DHT22;2624;48.048;11.706;2023-08-20T18:43:41;28.60;90.90
5210;DHT22;2624;48.048;11.706;2023-08-20T18:48:43;28.50;91.50
5210;DHT22;2624;48.048;11.706;2023-08-20T18:53:46;28.70;91.30
5210;DHT22;2624;48.048;11.706;2023-08-20T18:58:48;28.70;91.50
5210;DHT22;2624;48.048;11.706;2023-08-20T19:03:49;28.50;91.80
5210;DHT22;2624;48.048;11.706;2023-08-20T19:08:54;28.80;91.60
5210;DHT22;2624;48.048;11.706;2023-08-20T19:13:56;28.60;91.70
5210;DHT22;2624;48.048;11.706;2023-08-20T19:18:58;28.50;91.70
5210;DHT22;2624;48.048;11.706;2023-08-20T19:24:01;28.10;92.20
5210;DHT22;2624;48.048;11.706;2023-08-20T19:29:04;27.80;93.10
5210;DHT22;2624;48.048;11.706;2023-08-20T19:34:06;28.10;92.30
5210;DHT22;2624;48.048;11.706;2023-08-20T19:39:09;27.80;92.70
5210;DHT22;2624;48.048;11.706;2023-08-20T19:44:11;27.40;92.70
5210;DHT22;2624;48.048;11.706;2023-08-20T19:49:13;27.20;93.00
5210;DHT22;2624;48.048;11.706;2023-08-20T19:54:16;27.10;93.30
5210;DHT22;2624;48.048;11.706;2023-08-20T19:59:18;27.10;93.50
5210;DHT22;2624;48.048;11.706;2023-08-20T20:04:20;26.90;93.80
5210;DHT22;2624;48.048;11.706;2023-08-20T20:09:24;26.80;94.10
5210;DHT22;2624;48.048;11.706;2023-08-20T20:14:26;26.80;94.40
5210;DHT22;2624;48.048;11.706;2023-08-20T20:19:27;26.50;94.40
5210;DHT22;2624;48.048;11.706;2023-08-20T20:24:30;26.40;94.50
5210;DHT22;2624;48.048;11.706;2023-08-20T20:29:32;26.60;95.10
5210;DHT22;2624;48.048;11.706;2023-08-20T20:34:34;26.60;94.50
5210;DHT22;2624;48.048;11.706;2023-08-20T20:39:38;26.30;94.70
5210;DHT22;2624;48.048;11.706;2023-08-20T20:44:39;26.00;95.10
5210;DHT22;2624;48.048;11.706;2023-08-20T20:49:42;26.00;95.10
5210;DHT22;2624;48.048;11.706;2023-08-20T20:54:45;26.00;95.20
5210;DHT22;2624;48.048;11.706;2023-08-20T20:59:46;25.80;95.40
5210;DHT22;2624;48.048;11.706;2023-08-20T21:04:48;25.80;95.70
5210;DHT22;2624;48.048;11.706;2023-08-20T21:09:51;25.70;96.00
5210;DHT22;2624;48.048;11.706;2023-08-20T21:14:54;25.50;96.40
5210;DHT22;2624;48.048;11.706;2023-08-20T21:19:56;25.40;96.60
5210;DHT22;2624;48.048;11.706;2023-08-20T21:24:59;25.40;96.80
5210;DHT22;2624;48.048;11.706;2023-08-20T21:30:01;25.30;96.80
5210;DHT22;2624;48.048;11.706;2023-08-20T21:35:03;25.20;97.00
5210;DHT22;2624;48.048;11.706;2023-08-20T21:40:07;25.20;96.80
5210;DHT22;2624;48.048;11.706;2023-08-20T21:45:09;25.10;97.10
5210;DHT22;2624;48.048;11.706;2023-08-20T21:50:11;24.90;97.50
5210;DHT22;2624;48.048;11.706;2023-08-20T21:55:17;24.80;97.70
5210;DHT22;2624;48.048;11.706;2023-08-20T22:00:18;25.10;97.50
5210;DHT22;2624;48.048;11.706;2023-08-20T22:05:21;25.00;97.50
5210;DHT22;2624;48.048;11.706;2023-08-20T22:10:25;24.70;97.90
5210;DHT22;2624;48.048;11.706;2023-08-20T22:15:27;24.50;98.20
5210;DHT22;2624;48.048;11.706;2023-08-20T22:20:29;24.30;98.50
5210;DHT22;2624;48.048;11.706;2023-08-20T22:25:32;24.10;98.90
5210;DHT22;2624;48.048;11.706;2023-08-20T22:30:34;24.10;98.90
5210;DHT22;2624;48.048;11.706;2023-08-20T22:35:37;24.10;99.10
5210;DHT22;2624;48.048;11.706;2023-08-20T22:40:40;24.00;98.90
5210;DHT22;2624;48.048;11.706;2023-08-20T22:45:43;24.00;99.00
5210;DHT22;2624;48.048;11.706;2023-08-20T22:50:45;23.90;99.20
5210;DHT22;2624;48.048;11.706;2023-08-20T22:55:50;23.80;99.30
5210;DHT22;2624;48.048;11.706;2023-08-20T23:00:53;23.80;99.40
5210;DHT22;2624;48.048;11.706;2023-08-20T23:05:55;23.80;99.30
5210;DHT22;2624;48.048;11.706;2023-08-20T23:10:58;23.80;99.40
5210;DHT22;2624;48.048;11.706;2023-08-20T23:15:59;24.10;98.90
5210;DHT22;2624;48.048;11.706;2023-08-20T23:21:02;24.30;98.50
5210;DHT22;2624;48.048;11.706;2023-08-20T23:26:06;23.90;99.00
5210;DHT22;2624;48.048;11.706;2023-08-20T23:31:07;23.50;99.80
5210;DHT22;2624;48.048;11.706;2023-08-20T23:36:10;23.40;99.90
5210;DHT22;2624;48.048;11.706;2023-08-20T23:41:13;23.30;99.90
5210;DHT22;2624;48.048;11.706;2023-08-20T23:46:15;23.20;99.90
5210;DHT22;2624;48.048;11.706;2023-08-20T23:51:16;23.30;99.90
5210;DHT22;2624;48.048;11.706;2023-08-20T23:56:19;23.80;99.20
